createdAt,value
2022-08-28T00:03:03.168Z,37.22
2022-08-28T00:08:10.770Z,36.45
2022-08-28T00:13:19.220Z,35.13
2022-08-28T00:18:23.443Z,34.28
2022-08-28T00:23:36.949Z,37.28
2022-08-28T00:28:48.517Z,37.40
2022-08-28T00:33:52.004Z,38.60
2022-08-28T00:38:55.649Z,37.80
2022-08-28T00:44:11.135Z,35.67
2022-08-28T00:49:16.892Z,32.40
2022-08-28T00:54:21.309Z,32.55
2022-08-28T00:59:27.832Z,33.30
2022-08-28T01:04:33.606Z,34.72
2022-08-28T01:09:44.274Z,32.25
2022-08-28T01:14:53.713Z,31.25
2022-08-28T01:20:01.053Z,34.42
2022-08-28T01:25:12.717Z,36.65
2022-08-28T01:30:20.258Z,35.20
2022-08-28T01:35:27.221Z,34.00
2022-08-28T01:40:37.489Z,33.65
2022-08-28T01:45:42.724Z,34.90
2022-08-28T01:50:46.667Z,34.67
2022-08-28T01:55:52.656Z,34.50
2022-08-28T02:00:56.146Z,34.47
2022-08-28T02:05:59.634Z,33.10
2022-08-28T02:11:05.251Z,34.13
2022-08-28T02:16:11.093Z,33.38
2022-08-28T02:21:15.374Z,34.28
2022-08-28T02:26:21.224Z,33.58
2022-08-28T02:31:24.725Z,33.40
2022-08-28T02:36:28.542Z,34.30
2022-08-28T02:41:33.467Z,35.38
2022-08-28T02:46:36.966Z,34.83
2022-08-28T02:51:40.823Z,38.90
2022-08-28T02:56:46.039Z,36.97
2022-08-28T03:01:50.057Z,35.95
2022-08-28T03:06:53.516Z,37.55
2022-08-28T03:11:58.530Z,39.33
2022-08-28T03:17:02.262Z,39.72
2022-08-28T03:22:05.924Z,41.50
2022-08-28T03:27:10.836Z,41.03
2022-08-28T03:32:14.277Z,40.63
2022-08-28T03:37:17.781Z,39.20
2022-08-28T03:42:23.208Z,37.78
2022-08-28T03:47:28.409Z,40.00
2022-08-28T03:52:33.281Z,39.90
2022-08-28T03:57:38.138Z,38.55
2022-08-28T04:02:42.292Z,42.05
2022-08-28T04:12:50.894Z,42.42
2022-08-28T04:17:54.450Z,44.90
2022-08-28T04:22:58.036Z,44.70
2022-08-28T04:28:05.861Z,42.28
2022-08-28T04:33:10.747Z,43.05
2022-08-28T04:38:14.284Z,41.30
2022-08-28T04:43:19.238Z,43.10
2022-08-28T04:48:22.721Z,41.15
2022-08-28T04:53:26.263Z,40.30
2022-08-28T04:58:34.307Z,39.00
2022-08-28T05:03:38.135Z,40.40
2022-08-28T05:08:41.666Z,39.80
2022-08-28T05:13:47.007Z,37.95
2022-08-28T05:18:50.998Z,38.03
2022-08-28T05:23:56.603Z,37.40
2022-08-28T05:29:02.707Z,37.92
2022-08-28T05:34:07.251Z,37.25
2022-08-28T05:39:12.416Z,38.17
2022-08-28T05:44:18.661Z,38.25
2022-08-28T05:49:22.368Z,38.10
2022-08-28T05:59:31.546Z,36.40
2022-08-28T06:04:36.472Z,38.72
2022-08-28T06:09:40.330Z,38.65
2022-08-28T06:14:45.191Z,38.97
2022-08-28T06:19:49.030Z,37.95
2022-08-28T06:24:52.647Z,37.55
2022-08-28T06:29:58.838Z,38.42
2022-08-28T06:35:02.570Z,39.55
2022-08-28T06:40:07.877Z,39.45
2022-08-28T06:45:13.990Z,38.75
2022-08-28T06:50:17.693Z,37.70
2022-08-28T06:55:21.158Z,35.72
2022-08-28T07:00:26.216Z,33.42
2022-08-28T07:05:30.622Z,32.83
2022-08-28T07:10:34.212Z,31.67
2022-08-28T07:15:41.861Z,33.72
2022-08-28T07:20:46.912Z,31.55
2022-08-28T07:25:50.642Z,31.45
2022-08-28T07:31:00.681Z,28.52
2022-08-28T07:36:04.541Z,27.73
2022-08-28T07:41:15.862Z,26.70
2022-08-28T07:46:21.051Z,26.27
2022-08-28T07:51:24.628Z,24.80
2022-08-28T07:56:30.075Z,26.17
2022-08-28T08:01:39.739Z,26.88
2022-08-28T08:06:45.044Z,26.53
2022-08-28T08:11:49.511Z,23.95
2022-08-28T08:16:54.872Z,24.73
2022-08-28T08:21:59.350Z,23.60
2022-08-28T08:27:03.866Z,22.30
2022-08-28T08:32:12.335Z,23.27
2022-08-28T08:37:16.700Z,21.17
2022-08-28T08:42:25.976Z,19.95
2022-08-28T08:47:37.849Z,19.15
2022-08-28T08:52:59.779Z,17.77
2022-08-28T08:58:07.765Z,15.77
2022-08-28T09:03:17.382Z,14.50
2022-08-28T09:08:32.228Z,18.15
2022-08-28T09:13:49.779Z,18.25
2022-08-28T09:18:57.040Z,16.23
2022-08-28T09:24:10.933Z,15.90
2022-08-28T09:29:20.801Z,14.68
2022-08-28T09:34:30.121Z,15.05
2022-08-28T09:39:35.802Z,13.30
2022-08-28T09:44:56.461Z,14.88
2022-08-28T09:50:21.581Z,12.75
2022-08-28T09:55:35.299Z,12.77
2022-08-28T10:00:42.822Z,11.90
2022-08-28T10:05:58.829Z,15.73
2022-08-28T10:11:12.675Z,17.05
2022-08-28T10:16:24.822Z,11.48
2022-08-28T10:21:37.457Z,13.13
2022-08-28T10:26:50.093Z,11.18
2022-08-28T10:37:17.473Z,10.23
2022-08-28T10:42:35.717Z,8.75
2022-08-28T10:47:44.283Z,9.20
2022-08-28T10:52:55.524Z,8.63
2022-08-28T10:58:05.654Z,9.60
2022-08-28T11:03:36.927Z,8.55
2022-08-28T11:08:42.104Z,8.20
2022-08-28T11:13:56.164Z,8.73
2022-08-28T11:19:31.902Z,9.13
2022-08-28T11:24:47.414Z,8.52
2022-08-28T11:30:31.904Z,8.52
2022-08-28T11:35:48.690Z,8.27
2022-08-28T11:40:58.235Z,8.82
2022-08-28T11:46:26.263Z,9.38
2022-08-28T11:51:56.042Z,9.90
2022-08-28T11:57:09.504Z,11.50
2022-08-28T12:02:51.156Z,10.88
2022-08-28T12:07:54.668Z,12.00
2022-08-28T12:13:02.346Z,11.35
2022-08-28T12:18:14.808Z,11.02
2022-08-28T12:23:41.493Z,12.63
2022-08-28T12:28:49.958Z,14.73
2022-08-28T12:34:00.625Z,12.85
2022-08-28T12:39:07.803Z,14.20
2022-08-28T12:44:15.719Z,14.10
2022-08-28T12:49:35.161Z,13.73
2022-08-28T12:54:39.089Z,14.82
2022-08-28T12:59:45.978Z,13.13
2022-08-28T13:04:55.659Z,12.02
2022-08-28T13:10:03.567Z,12.65
2022-08-28T13:15:11.422Z,11.63
2022-08-28T13:20:28.978Z,11.80
2022-08-28T13:25:35.003Z,12.02
2022-08-28T13:30:40.462Z,11.52
2022-08-28T13:35:44.425Z,12.13
2022-08-28T13:40:58.001Z,12.50
2022-08-28T13:46:04.808Z,12.85
2022-08-28T13:51:14.216Z,12.18
2022-08-28T13:56:24.324Z,12.60
2022-08-28T14:01:49.391Z,10.82
2022-08-28T14:06:54.107Z,12.45
2022-08-28T14:11:58.008Z,11.82
2022-08-28T14:17:03.916Z,12.38
2022-08-28T14:22:07.911Z,12.38
2022-08-28T14:27:11.818Z,12.65
2022-08-28T14:32:16.802Z,12.65
2022-08-28T14:37:21.742Z,12.98
2022-08-28T14:42:26.722Z,13.38
2022-08-28T14:47:33.003Z,13.60
2022-08-28T14:52:37.556Z,12.88
2022-08-28T14:57:42.113Z,11.73
2022-08-28T15:02:47.254Z,11.00
2022-08-28T15:07:51.255Z,10.82
2022-08-28T15:12:54.991Z,11.60
2022-08-28T15:18:00.898Z,11.55
2022-08-28T15:23:04.695Z,10.90
2022-08-28T15:28:08.836Z,12.35
2022-08-28T15:33:14.347Z,11.20
2022-08-28T15:38:18.379Z,12.23
2022-08-28T15:43:22.006Z,12.32
2022-08-28T15:48:30.532Z,11.88
2022-08-28T15:53:35.018Z,11.57
2022-08-28T15:58:39.131Z,12.10
2022-08-28T16:03:44.176Z,12.27
2022-08-28T16:08:49.379Z,12.25
2022-08-28T16:13:54.133Z,12.13
2022-08-28T16:18:59.607Z,10.77
2022-08-28T16:24:03.225Z,10.85
2022-08-28T16:29:07.704Z,10.95
2022-08-28T16:34:12.595Z,12.43
2022-08-28T16:39:16.687Z,11.77
2022-08-28T16:44:20.874Z,12.10
2022-08-28T16:49:26.763Z,12.30
2022-08-28T16:54:30.559Z,12.02
2022-08-28T16:59:34.802Z,13.23
2022-08-28T17:04:45.310Z,12.20
2022-08-28T17:09:49.474Z,13.02
2022-08-28T17:14:52.970Z,12.20
2022-08-28T17:19:57.948Z,13.55
2022-08-28T17:25:03.578Z,12.40
2022-08-28T17:30:09.239Z,11.90
2022-08-28T17:35:15.307Z,12.93
2022-08-28T17:40:19.874Z,12.70
2022-08-28T17:45:25.824Z,13.05
2022-08-28T17:50:32.700Z,14.02
2022-08-28T17:55:37.408Z,14.00
2022-08-28T18:00:41.935Z,14.25
2022-08-28T18:05:47.918Z,15.25
2022-08-28T18:10:51.795Z,16.67
2022-08-28T18:21:02.785Z,22.50
2022-08-28T18:26:07.732Z,24.15
2022-08-28T18:31:11.640Z,26.00
2022-08-28T18:36:17.258Z,28.02
2022-08-28T18:41:34.555Z,31.45
2022-08-28T18:46:45.920Z,33.60
2022-08-28T18:56:59.600Z,34.28
2022-08-28T19:02:08.906Z,35.53
2022-08-28T19:07:14.739Z,39.92
2022-08-28T19:12:18.373Z,41.47
2022-08-28T19:17:22.157Z,42.75
2022-08-28T19:22:29.981Z,44.72
2022-08-28T19:27:34.285Z,49.22
2022-08-28T19:32:39.853Z,51.97
2022-08-28T19:37:47.321Z,55.95
2022-08-28T19:42:51.432Z,57.83
2022-08-28T19:47:56.326Z,57.35
2022-08-28T19:53:01.498Z,57.13
2022-08-28T19:58:06.989Z,58.97
2022-08-28T20:03:11.257Z,60.05
2022-08-28T20:08:17.878Z,59.63
2022-08-28T20:13:22.090Z,58.78
2022-08-28T20:18:26.311Z,55.35
2022-08-28T20:23:31.107Z,57.80
2022-08-28T20:28:35.605Z,46.20
2022-08-28T20:33:39.759Z,53.08
2022-08-28T20:38:45.269Z,53.17
2022-08-28T20:43:49.838Z,51.30
2022-08-28T20:48:53.524Z,54.75
2022-08-28T20:53:58.315Z,53.03
2022-08-28T20:59:02.641Z,52.42
2022-08-28T21:04:07.959Z,51.38
2022-08-28T21:09:12.839Z,47.35
2022-08-28T21:14:16.922Z,45.60
2022-08-28T21:19:20.382Z,45.40
2022-08-28T21:24:26.450Z,46.38
2022-08-28T21:29:30.914Z,46.08
2022-08-28T21:34:34.375Z,46.17
2022-08-28T21:39:39.834Z,45.58
2022-08-28T21:44:46.108Z,48.17
2022-08-28T21:49:56.985Z,48.78
2022-08-28T21:55:04.926Z,47.67
2022-08-28T22:00:14.100Z,48.05
2022-08-28T22:05:18.173Z,47.80
2022-08-28T22:15:26.976Z,44.00
2022-08-28T22:20:30.804Z,45.08
2022-08-28T22:25:40.602Z,46.42
2022-08-28T22:30:44.918Z,44.08
2022-08-28T22:35:50.508Z,44.00
2022-08-28T22:40:55.357Z,42.70
2022-08-28T22:45:59.491Z,42.03
2022-08-28T22:51:06.554Z,41.30
2022-08-28T22:56:12.691Z,41.28
2022-08-28T23:01:19.343Z,42.10
2022-08-28T23:06:22.811Z,42.88
2022-08-28T23:11:28.565Z,42.78
2022-08-28T23:16:35.221Z,41.95
2022-08-28T23:21:40.829Z,42.45
2022-08-28T23:26:49.261Z,42.53
2022-08-28T23:31:54.595Z,42.20
2022-08-28T23:36:58.031Z,41.97
2022-08-28T23:42:03.774Z,41.78
2022-08-28T23:47:07.394Z,41.35
2022-08-28T23:52:11.021Z,42.33
2022-08-28T23:57:17.347Z,42.00
